Latest Weather Observations for White Cliffs AWS

IDN60801

Issued at 6:35 pm EDT Friday 31 October 2014 (issued every 30 minutes, with the page automatically refreshed every 10 minutes)

About weather observations | Map of weather stations | Latest weather observations for NSW | Other Formats
Station Details ID: 046129 Name: WHITE CLIFFS AWS Lat: -30.85 Lon: 143.07 Height: 158.0 m
Data from the previous 72 hours. | See also: Recent months at White Cliffs AWS
Date/Time
EDT
Temp
°C
App
Temp
°C
Dew
Point
Rel
Hum
%
Delta-T
°C
Wind Press
QNH
hPa
Press
MSL
hPa
Rain
since 9 am
mm
Dir
 
Spd
km/h
Gust
km/h
Spd
kts
Gust
kts
31/06:30pm 35.7 31.7 -2.0 9 18.3 WNW 9 13 5 7 1003.5 1002.9 0.0
31/06:00pm 35.8 31.5 -2.0 9 18.4 WNW 11 20 6 11 1003.6 1003.0 0.0
31/05:30pm 36.3 30.9 -1.6 9 18.5 NW 17 26 9 14 1003.9 1003.3 0.0
31/05:00pm 36.3 31.2 -1.6 9 18.6 W 15 22 8 12 1004.3 1003.7 0.0
31/04:30pm 35.4 30.1 -0.8 10 17.8 NNW 17 24 9 13 1004.7 1004.1 0.0
31/04:00pm 36.0 28.6 -0.4 10 18.2 N 28 41 15 22 1004.9 1004.3 0.0
31/03:30pm 36.1 30.1 -1.7 9 18.4 NNW 20 35 11 19 1005.3 1004.7 0.0
31/03:00pm 36.0 30.0 -1.8 9 18.4 N 20 20 11 11 1005.8 1005.2 0.0
31/02:30pm 36.6 27.8 -1.4 9 18.7 NW 35 46 19 25 1006.1 1005.5 0.0
31/02:27pm 37.1 27.9 -1.0 9 18.9 NW 37 46 20 25 1006.1 1005.5 0.0
31/02:00pm 36.6 30.6 -1.4 9 18.7 N 20 28 11 15 1006.7 1006.1 0.0
31/01:30pm 35.4 29.5 -2.3 9 18.1 NNW 19 35 10 19 1007.1 1006.5 0.0
31/01:00pm 34.9 29.7 -2.6 9 17.9 N 15 28 8 15 1007.6 1007.0 0.0
31/12:30pm 34.7 30.8 -1.4 10 17.5 W 9 20 5 11 1008.1 1007.6 0.0
31/12:00pm 34.4 31.2 -0.3 11 17.1 NW 6 13 3 7 1008.5 1008.0 0.0
31/11:30am 33.0 29.7 -1.4 11 16.5 NNE 6 11 3 6 1009.1 1008.6 0.0
31/11:00am 31.2 27.6 0.6 14 15.0 SSW 9 11 5 6 1009.6 1009.1 0.0
31/10:30am 31.1 28.0 -2.8 11 15.7 NNE 4 9 2 5 1010.0 1009.4 0.0
31/10:00am 30.2 26.9 -0.2 14 14.6 ESE 7 9 4 5 1010.2 1009.6 0.0
31/09:30am 29.2 25.9 -0.1 15 14.0 SE 7 9 4 5 1010.4 1009.8 0.0
31/09:00am 29.5 25.7 -0.8 14 14.3 ENE 9 13 5 7 1010.3 1009.7 0.0
31/08:30am 26.7 24.8 0.4 18 12.4 CALM 0 0 0 0 1010.1 1009.5 0.0
31/08:00am 23.7 21.7 0.1 21 10.9 CALM 0 0 0 0 1010.2 1009.6 0.0
31/07:30am 22.2 19.5 0.1 23 10.0 WSW 4 7 2 4 1010.1 1009.5 0.0
31/07:00am 23.1 19.7 -0.4 21 10.7 E 7 9 4 5 1009.9 1009.3 0.0
31/06:30am 22.5 18.8 -0.3 22 10.3 E 9 11 5 6 1009.5 1009.0 0.0
31/06:00am 20.8 17.3 -1.1 23 9.6 NNE 7 9 4 5 1009.4 1008.9 0.0
31/05:30am 20.3 17.7 -1.5 23 9.4 N 2 7 1 4 1009.2 1008.7 0.0
31/05:00am 21.0 17.2 -0.9 23 9.7 N 9 9 5 5 1009.2 1008.7 0.0
31/04:30am 21.6 18.1 -1.6 21 10.1 N 7 9 4 5 1009.0 1008.5 0.0
31/04:00am 22.3 19.0 -1.1 21 10.4 NNW 6 7 3 4 1009.1 1008.6 0.0
31/03:30am 22.6 18.7 -1.5 20 10.7 WNW 9 9 5 5 1009.3 1008.8 0.0
31/03:00am 23.4 21.3 -0.8 20 10.9 CALM 0 0 0 0 1009.4 1008.9 0.0
31/02:30am 23.1 19.5 -1.8 19 11.0 WNW 7 9 4 5 1009.7 1009.2 0.0
31/02:00am 23.5 20.0 -1.4 19 11.1 W 7 11 4 6 1010.1 1009.5 0.0
31/01:30am 24.2 20.3 -1.6 18 11.5 N 9 9 5 5 1010.6 1010.0 0.0
31/01:00am 24.7 20.5 -1.2 18 11.7 N 11 11 6 6 1011.1 1010.5 0.0
31/12:30am 25.2 20.9 -1.6 17 12.1 N 11 13 6 7 1011.3 1010.7 0.0
31/12:00am 25.1 21.2 -1.6 17 12.0 N 9 11 5 6 1011.4 1010.8 0.0
 
Date/Time
EDT
Temp
°C
App
Temp
°C
Dew
Point
Rel
Hum
%
Delta-T
°C
Wind Press
QNH
hPa
Press
MSL
hPa
Rain
since 9 am
mm
Dir
 
Spd
km/h
Gust
km/h
Spd
kts
Gust
kts
30/11:30pm 26.2 24.0 -1.6 16 12.6 CALM 0 6 0 3 1011.5 1010.9 0.0
30/11:00pm 27.1 23.6 -1.7 15 13.2 NNW 7 11 4 6 1011.7 1011.1 0.0
30/10:30pm 28.1 24.7 -0.9 15 13.5 N 7 9 4 5 1011.9 1011.3 0.0
30/10:00pm 28.9 25.0 -1.2 14 14.1 N 9 13 5 7 1011.9 1011.3 0.0
30/09:30pm 28.7 25.2 -1.4 14 14.0 NNE 7 9 4 5 1011.7 1011.1 0.0
30/09:00pm 29.1 25.6 -1.1 14 14.2 NNE 7 9 4 5 1011.5 1010.9 0.0
30/08:30pm 29.8 27.1 -2.6 12 14.9 NNE 2 11 1 6 1011.3 1010.7 0.0
30/08:00pm 31.3 29.0 -2.6 11 15.8 CALM 0 0 0 0 1011.1 1010.5 0.0
30/07:30pm 32.6 28.5 -2.9 10 16.6 N 9 13 5 7 1010.8 1010.2 0.0
30/07:00pm 33.5 30.7 -3.7 9 17.2 S 2 11 1 6 1010.8 1010.2 0.0
30/06:30pm 34.5 31.4 -2.9 9 17.7 SSW 4 9 2 5 1010.7 1010.1 0.0
30/06:00pm 34.4 31.6 -3.0 9 17.7 W 2 7 1 4 1010.7 1010.1 0.0
30/05:30pm 34.3 29.4 -3.1 9 17.6 W 13 20 7 11 1010.8 1010.2 0.0
30/05:00pm 34.5 30.0 -2.9 9 17.7 SW 11 17 6 9 1010.9 1010.3 0.0
30/04:30pm 34.3 30.2 -3.1 9 17.6 W 9 15 5 8 1011.1 1010.5 0.0
30/04:00pm 33.6 28.7 -3.6 9 17.3 W 13 22 7 12 1011.4 1010.8 0.0
30/03:30pm 33.8 29.6 -3.5 9 17.4 NE 9 15 5 8 1011.7 1011.1 0.0
30/03:00pm 34.0 30.4 -1.9 10 17.2 ESE 7 20 4 11 1012.1 1011.5 0.0
30/02:30pm 34.9 31.4 -1.2 10 17.6 SSW 7 11 4 6 1012.8 1012.2 0.0
30/02:00pm 33.2 29.2 -2.5 10 16.8 NNW 9 17 5 9 1013.2 1012.6 0.0
30/01:30pm 31.9 26.2 -1.0 12 15.8 NW 19 26 10 14 1013.7 1013.2 0.0
30/01:00pm 32.4 27.7 -1.8 11 16.2 N 13 22 7 12 1014.1 1013.6 0.0
30/12:30pm 32.6 29.4 0.6 13 15.8 W 7 15 4 8 1014.6 1014.1 0.0
30/12:00pm 32.0 28.7 0.2 13 15.5 N 7 15 4 8 1015.1 1014.6 0.0
30/11:30am 30.9 27.7 3.0 17 14.2 E 9 15 5 8 1015.4 1014.9 0.0
30/11:00am 30.4 27.6 3.4 18 13.8 N 7 13 4 7 1015.8 1015.3 0.0
30/10:30am 29.3 25.4 3.3 19 13.2 NE 13 19 7 10 1015.7 1015.2 0.0
30/10:00am 29.2 24.9 3.2 19 13.1 NNE 15 20 8 11 1015.7 1015.2 0.0
30/09:30am 28.0 24.2 3.7 21 12.3 ENE 13 17 7 9 1015.7 1015.2 0.0
30/09:00am 26.7 22.5 3.9 23 11.5 ENE 15 20 8 11 1015.7 1015.2 0.0
30/08:30am 24.2 20.6 2.9 25 10.4 E 11 15 6 8 1015.6 1015.1 0.0
30/08:00am 23.7 19.7 3.1 26 10.0 E 13 15 7 8 1015.4 1014.9 0.0
30/07:30am 21.3 17.4 3.5 31 8.6 E 13 15 7 8 1015.2 1014.7 0.0
30/07:00am 19.6 15.2 2.9 33 7.8 E 15 15 8 8 1015.1 1014.6 0.0
30/06:30am 18.5 14.4 2.4 34 7.4 E 13 15 7 8 1015.0 1014.5 0.0
30/06:00am 19.3 15.3 3.1 34 7.6 E 13 13 7 7 1014.8 1014.3 0.0
30/05:30am 18.3 14.6 2.6 35 7.3 E 11 13 6 7 1014.8 1014.3 0.0
30/05:00am 18.5 14.4 2.4 34 7.4 E 13 13 7 7 1014.5 1014.0 0.0
30/04:30am 19.9 16.7 3.2 33 7.9 ESE 9 9 5 5 1014.3 1013.8 0.0
30/04:00am 19.8 16.1 2.6 32 8.0 ESE 11 11 6 6 1014.5 1014.0 0.0
30/03:30am 20.2 16.2 3.0 32 8.1 E 13 13 7 7 1014.5 1014.0 0.0
30/03:00am 19.4 15.4 2.7 33 7.8 E 13 13 7 7 1014.5 1014.0 0.0
30/02:30am 20.5 17.0 3.3 32 8.2 E 11 13 6 7 1014.3 1013.8 0.0
30/02:00am 20.7 17.1 3.0 31 8.4 E 11 11 6 6 1014.5 1014.0 0.0
30/01:30am 20.6 17.0 2.9 31 8.4 E 11 11 6 6 1014.8 1014.3 0.0
30/01:00am 21.2 17.7 3.4 31 8.5 E 11 13 6 7 1015.2 1014.7 0.0
30/12:30am 21.3 17.6 2.6 29 8.9 E 11 13 6 7 1015.7 1015.2 0.0
30/12:00am 22.7 19.5 3.3 28 9.4 ESE 9 11 5 6 1016.0 1015.5 0.0
 
Date/Time
EDT
Temp
°C
App
Temp
°C
Dew
Point
Rel
Hum
%
Delta-T
°C
Wind Press
QNH
hPa
Press
MSL
hPa
Rain
since 9 am
mm
Dir
 
Spd
km/h
Gust
km/h
Spd
kts
Gust
kts
29/11:30pm 22.2 19.0 2.8 28 9.3 E 9 11 5 6 1015.9 1015.4 0.0
29/11:00pm 22.8 19.6 2.8 27 9.6 E 9 9 5 5 1015.9 1015.4 0.0
29/10:30pm 23.4 20.2 2.8 26 9.9 E 9 11 5 6 1015.8 1015.3 0.0
29/10:00pm 25.1 22.4 3.7 25 10.6 SE 7 11 4 6 1015.8 1015.3 0.0
29/09:30pm 26.1 22.6 3.4 23 11.3 SE 11 13 6 7 1015.6 1015.1 0.0
29/09:00pm 26.4 23.2 3.0 22 11.6 SSE 9 11 5 6 1015.5 1015.0 0.0
29/08:30pm 27.5 24.7 3.2 21 12.2 SSE 7 9 4 5 1015.4 1014.9 0.0
29/08:00pm 28.4 25.2 3.3 20 12.6 SSE 9 11 5 6 1015.0 1014.5 0.0
29/07:30pm 29.2 26.4 3.2 19 13.1 SSE 7 11 4 6 1014.8 1014.3 0.0
29/07:00pm 29.8 26.6 2.9 18 13.6 SSW 9 15 5 8 1014.6 1014.1 0.0
29/06:30pm 30.2 27.0 3.3 18 13.7 SSW 9 17 5 9 1014.5 1014.0 0.0
29/06:00pm 29.8 26.3 3.7 19 13.4 SE 11 20 6 11 1014.5 1014.0 0.0
29/05:30pm 30.0 25.7 3.1 18 13.6 SW 15 22 8 12 1014.6 1014.1 0.0
29/05:00pm 30.7 27.8 4.4 19 13.7 SW 9 20 5 11 1014.9 1014.4 0.0
29/04:30pm 30.0 26.2 3.9 19 13.4 SSW 13 22 7 12 1015.0 1014.5 0.0
29/04:00pm 30.3 26.9 4.1 19 13.5 SW 11 20 6 11 1015.4 1014.9 0.0
29/03:30pm 30.2 27.3 4.8 20 13.3 SSE 9 17 5 9 1015.9 1015.4 0.0
29/03:00pm 29.2 25.5 4.6 21 12.7 SE 13 20 7 11 1016.5 1015.9 0.0
29/02:30pm 28.4 24.7 4.6 22 12.3 SW 13 24 7 13 1017.0 1016.4 0.0
29/02:00pm 28.1 24.4 4.4 22 12.1 SW 13 24 7 13 1017.5 1016.9 0.0
29/01:30pm 28.5 24.1 4.7 22 12.3 S 17 32 9 17 1017.9 1017.3 0.0
29/01:00pm 27.2 22.4 4.9 24 11.4 SE 19 22 10 12 1018.2 1017.6 0.0
29/12:30pm 27.1 23.7 6.0 26 11.1 S 13 26 7 14 1018.8 1018.2 0.0
29/12:00pm 25.7 23.0 5.8 28 10.3 S 9 20 5 11 1019.2 1018.7 0.0
29/11:30am 25.0 21.4 5.2 28 10.1 ESE 13 20 7 11 1019.6 1019.1 0.0
29/11:00am 23.8 19.9 5.2 30 9.4 ESE 15 20 8 11 1019.9 1019.4 0.0
29/10:30am 23.6 19.0 5.5 31 9.2 E 19 22 10 12 1019.9 1019.4 0.0
29/10:00am 23.2 19.1 6.0 33 8.8 ESE 17 24 9 13 1020.0 1019.5 0.0
29/09:30am 21.8 17.0 5.7 35 8.1 ESE 20 30 11 16 1019.9 1019.4 0.0
29/09:00am 20.9 15.3 5.3 36 7.7 SE 24 33 13 18 1019.6 1019.1 0.0
29/08:30am 20.4 14.4 5.2 37 7.5 SE 26 35 14 19 1019.5 1019.0 0.0
29/08:00am 19.3 13.5 4.6 38 7.1 SE 24 32 13 17 1019.5 1019.0 0.0
29/07:30am 17.7 12.5 3.6 39 6.6 S 20 24 11 13 1019.3 1018.8 0.0
29/07:00am 16.6 12.2 2.6 39 6.4 S 15 19 8 10 1018.9 1018.3 0.0
29/06:30am 16.2 11.7 1.9 38 6.4 S 15 17 8 9 1018.6 1018.0 0.0
29/06:00am 16.3 11.7 1.6 37 6.5 S 15 17 8 9 1018.2 1017.6 0.0
29/05:30am 16.6 12.4 1.5 36 6.7 S 13 15 7 8 1017.8 1017.2 0.0
29/05:00am 16.4 11.7 0.9 35 6.8 S 15 15 8 8 1017.5 1016.9 0.0
29/04:30am 17.2 12.9 1.2 34 7.1 S 13 15 7 8 1017.4 1016.8 0.0
29/04:00am 17.6 13.3 1.2 33 7.3 S 13 13 7 7 1017.2 1016.6 0.0
29/03:30am 18.1 13.9 1.6 33 7.5 S 13 13 7 7 1017.1 1016.5 0.0
29/03:00am 18.4 14.2 1.4 32 7.7 S 13 15 7 8 1017.0 1016.4 0.0
29/02:30am 18.5 14.7 1.5 32 7.7 S 11 13 6 7 1017.1 1016.5 0.0
29/02:00am 18.9 15.0 1.4 31 7.9 S 11 13 6 7 1017.3 1016.7 0.0
29/01:30am 19.2 14.9 1.2 30 8.2 S 13 15 7 8 1017.4 1016.8 0.0
29/01:00am 19.5 15.6 1.0 29 8.4 S 11 13 6 7 1017.6 1017.0 0.0
29/12:30am 20.2 15.9 1.1 28 8.7 SSE 13 15 7 8 1017.7 1017.1 0.0
29/12:00am 20.9 16.2 1.2 27 9.0 SSE 15 17 8 9 1017.8 1017.2 0.0
 
Date/Time
EDT
Temp
°C
App
Temp
°C
Dew
Point
Rel
Hum
%
Delta-T
°C
Wind Press
QNH
hPa
Press
MSL
hPa
Rain
since 9 am
mm
Dir
 
Spd
km/h
Gust
km/h
Spd
kts
Gust
kts
28/11:30pm 21.1 16.4 0.9 26 9.2 SSE 15 17 8 9 1017.8 1017.2 0.0
28/11:00pm 21.3 16.8 -0.6 23 9.7 SSE 13 15 7 8 1017.8 1017.2 0.0
28/10:30pm 21.5 16.9 -1.1 22 10.0 S 13 13 7 7 1017.7 1017.1 0.0
28/10:00pm 22.3 17.7 -1.1 21 10.4 S 13 13 7 7 1017.4 1016.8 0.0
28/09:30pm 22.7 18.1 -1.4 20 10.7 S 13 13 7 7 1017.2 1016.6 0.0
28/09:00pm 23.4 19.0 -2.2 18 11.2 S 11 13 6 7 1016.9 1016.3 0.0
28/08:30pm 24.5 20.1 -2.1 17 11.8 S 11 13 6 7 1016.7 1016.1 0.0
28/08:00pm 25.5 20.5 -1.3 17 12.2 SSW 15 19 8 10 1016.5 1015.9 0.0
28/07:30pm 26.5 20.7 -1.3 16 12.7 SW 19 24 10 13 1016.1 1015.6 0.0
28/07:00pm 27.4 21.5 -0.6 16 13.1 SW 20 26 11 14 1015.8 1015.3 0.0

Other Formats:

Comma delimited format used in spreadsheet applications
http://www.bom.gov.au/fwo/IDN60801/IDN60801.95699.axf

JavaScript Object Notation format (JSON) in row-major order
http://www.bom.gov.au/fwo/IDN60801/IDN60801.95699.json